Search for airport 
image banner adimage banner adimage banner ad
image banner ad

CCR3 - Florenceville

Located in , Canada

ICAO - CCR3, IATA -

Data provided by Airmate  

General information

Coordinates: N46°25'34" W67°37'41"
Elevation is 508 feet MSL.
Magnetic variation is -17.5731° East
View others Airports in New Brunswick

Operational data

Special qualification required
Current time UTC:
Current local time:
Weather at : KHUL - Houlton Intl ( 36 km )
METAR: KHUL 221653Z AUTO VRB05KT 10SM SCT015 OVC022 16/13 A2970 RMK AO2 SLP058 T01610133
TAF: KHUL 221125Z 2212/2312 14007KT 4SM BR OVC004 FM221500 18009KT 3SM -SHRA OVC006 FM221800 23010KT 5SM -SHRA OVC015 FM222100 27008KT P6SM VCSH BKN025 FM222300 28006KT P6SM BKN040
View NOTAMs / SUP AIP / TFR affecting this airport [VIEW]
Communications frequencies: [VIEW]

Runways:

RWY identifierQFULength (ft)Width (ft)SurfaceLDA (ft)
18159°5414100ASPH5414
36339°5414100ASPH5414

Airport contact information

Address: Canada

Satellite view of CCR3